createdAt,value
2019-02-19T00:00:32.310Z,11.70
2019-02-19T00:01:32.318Z,16.50
2019-02-19T00:02:32.293Z,15.20
2019-02-19T00:03:32.280Z,14.00
2019-02-19T00:04:32.281Z,12.90
2019-02-19T00:05:32.265Z,14.50
2019-02-19T00:06:32.270Z,16.10
2019-02-19T00:07:32.242Z,15.90
2019-02-19T00:08:32.226Z,16.60
2019-02-19T00:09:32.214Z,15.40
2019-02-19T00:10:32.204Z,16.50
2019-02-19T00:11:32.206Z,15.20
2019-02-19T00:12:32.217Z,17.00
2019-02-19T00:13:32.172Z,16.80
2019-02-19T00:14:32.162Z,12.40
2019-02-19T00:15:32.151Z,14.30
2019-02-19T00:16:32.164Z,11.60
2019-02-19T00:17:32.133Z,15.90
2019-02-19T00:18:32.128Z,15.10
2019-02-19T00:19:32.133Z,15.60
2019-02-19T00:20:32.100Z,15.80
2019-02-19T00:21:32.084Z,13.10
2019-02-19T00:22:32.092Z,13.50
2019-02-19T00:23:32.069Z,15.50
2019-02-19T00:24:32.055Z,14.20
2019-02-19T00:25:32.069Z,17.50
2019-02-19T00:26:32.033Z,15.00
2019-02-19T00:27:32.026Z,16.80
2019-02-19T00:28:32.025Z,15.80
2019-02-19T00:29:31.999Z,15.20
2019-02-19T00:30:31.992Z,16.10
2019-02-19T00:31:32.004Z,15.00
2019-02-19T00:32:31.981Z,15.60
2019-02-19T00:33:31.960Z,17.20
2019-02-19T00:34:31.955Z,15.90
2019-02-19T00:35:31.934Z,19.30
2019-02-19T00:36:31.943Z,18.00
2019-02-19T00:37:31.916Z,14.50
2019-02-19T00:38:31.915Z,17.90
2019-02-19T00:39:31.893Z,18.90
2019-02-19T00:40:31.893Z,15.50
2019-02-19T00:41:31.870Z,14.60
2019-02-19T00:42:31.877Z,17.20
2019-02-19T00:43:31.850Z,16.00
2019-02-19T00:44:31.841Z,16.60
2019-02-19T00:45:31.832Z,15.80
2019-02-19T00:46:31.849Z,17.30
2019-02-19T00:47:31.809Z,15.50
2019-02-19T00:48:31.813Z,14.50
2019-02-19T00:49:31.784Z,16.40
2019-02-19T00:50:31.775Z,15.10
2019-02-19T00:51:31.767Z,18.50
2019-02-19T00:52:31.765Z,14.00
2019-02-19T00:53:31.783Z,17.20
2019-02-19T00:54:31.749Z,22.90
2019-02-19T00:55:31.725Z,16.40
2019-02-19T00:56:31.709Z,19.40
2019-02-19T00:57:31.701Z,13.90
2019-02-19T00:58:31.712Z,19.10
2019-02-19T00:59:31.706Z,12.70
2019-02-19T01:00:31.684Z,14.00
2019-02-19T01:01:31.658Z,18.80
2019-02-19T01:02:31.649Z,17.80
2019-02-19T01:03:31.650Z,16.00
2019-02-19T01:04:31.626Z,18.20
2019-02-19T01:05:31.660Z,17.50
2019-02-19T01:06:31.638Z,20.20
2019-02-19T01:07:31.615Z,17.40
2019-02-19T01:08:31.606Z,14.80
2019-02-19T01:09:31.581Z,14.30
2019-02-19T01:10:31.557Z,15.60
2019-02-19T01:11:31.550Z,16.90
2019-02-19T01:12:31.646Z,16.50
2019-02-19T01:13:31.539Z,16.10
2019-02-19T01:14:31.516Z,17.20
2019-02-19T01:15:31.507Z,14.20
2019-02-19T01:16:31.494Z,10.50
2019-02-19T01:17:31.603Z,11.00
2019-02-19T01:18:31.473Z,13.00
2019-02-19T01:19:31.461Z,13.80
2019-02-19T01:20:31.452Z,11.60
2019-02-19T01:21:31.447Z,16.40
2019-02-19T01:22:31.451Z,11.30
2019-02-19T01:23:31.431Z,14.70
2019-02-19T01:24:31.431Z,13.40
2019-02-19T01:25:31.399Z,14.00
2019-02-19T01:26:31.389Z,11.80
2019-02-19T01:27:31.395Z,12.40
2019-02-19T01:28:31.368Z,12.10
2019-02-19T01:29:31.363Z,14.90
2019-02-19T01:30:31.369Z,12.30
2019-02-19T01:31:31.335Z,15.10
2019-02-19T01:32:31.340Z,13.80
2019-02-19T01:33:31.310Z,11.30
2019-02-19T01:34:31.305Z,10.90
2019-02-19T01:35:31.290Z,14.20
2019-02-19T01:36:31.336Z,11.00
2019-02-19T01:37:31.287Z,11.80
2019-02-19T01:38:31.258Z,10.30
2019-02-19T01:39:31.247Z,12.50
2019-02-19T01:40:31.238Z,12.30
2019-02-19T01:41:31.226Z,13.90
2019-02-19T01:42:31.236Z,11.00
2019-02-19T01:43:31.211Z,12.50
2019-02-19T01:44:31.209Z,16.60
2019-02-19T01:45:34.134Z,13.20
2019-02-19T01:46:31.173Z,15.10
2019-02-19T01:47:31.182Z,16.80
2019-02-19T01:48:31.161Z,11.70
2019-02-19T01:49:31.140Z,16.40
2019-02-19T01:50:31.157Z,11.30
2019-02-19T01:51:31.126Z,10.80
2019-02-19T01:52:31.109Z,13.90
2019-02-19T01:53:31.118Z,12.40
2019-02-19T01:54:31.086Z,13.70
2019-02-19T01:55:31.075Z,12.90
2019-02-19T01:56:31.084Z,11.30
2019-02-19T01:57:31.075Z,13.00
2019-02-19T01:58:31.044Z,16.80
2019-02-19T01:59:31.052Z,15.60
2019-02-19T02:00:31.022Z,14.60
2019-02-19T02:01:31.010Z,13.60
2019-02-19T02:02:31.036Z,14.10
2019-02-19T02:03:31.024Z,13.60
2019-02-19T02:04:30.983Z,15.40
2019-02-19T02:05:30.968Z,17.20
2019-02-19T02:06:30.970Z,15.10
2019-02-19T02:07:30.946Z,18.00
2019-02-19T02:08:30.978Z,16.40
2019-02-19T02:09:30.942Z,14.50
2019-02-19T02:10:30.923Z,15.80
2019-02-19T02:11:30.906Z,17.10
2019-02-19T02:12:30.905Z,16.00
2019-02-19T02:13:30.882Z,16.20
2019-02-19T02:14:30.914Z,16.80
2019-02-19T02:15:30.893Z,19.00
2019-02-19T02:16:30.849Z,17.30
2019-02-19T02:17:30.840Z,22.00
2019-02-19T02:18:30.833Z,17.80
2019-02-19T02:19:30.816Z,21.20
2019-02-19T02:20:30.845Z,14.20
2019-02-19T02:21:30.803Z,18.30
2019-02-19T02:22:30.820Z,20.60
2019-02-19T02:23:30.792Z,17.90
2019-02-19T02:24:30.763Z,17.60
2019-02-19T02:25:30.754Z,18.30
2019-02-19T02:26:30.753Z,24.00
2019-02-19T02:27:30.730Z,20.80
2019-02-19T02:28:30.752Z,17.50
2019-02-19T02:29:30.710Z,19.20
2019-02-19T02:30:30.701Z,19.90
2019-02-19T02:31:30.693Z,22.20
2019-02-19T02:32:30.683Z,25.60
2019-02-19T02:33:30.686Z,22.80
2019-02-19T02:34:30.757Z,21.60
2019-02-19T02:35:30.647Z,21.50
2019-02-19T02:36:30.640Z,22.90
2019-02-19T02:37:30.635Z,23.60
2019-02-19T02:38:30.630Z,23.70
2019-02-19T02:39:30.604Z,20.90
2019-02-19T02:40:30.614Z,31.40
2019-02-19T02:41:30.591Z,32.90
2019-02-19T02:42:30.579Z,32.90
2019-02-19T02:43:30.796Z,32.50
2019-02-19T02:44:30.567Z,27.10
2019-02-19T02:45:30.537Z,33.10
2019-02-19T02:46:30.553Z,30.30
2019-02-19T02:47:30.526Z,29.40
2019-02-19T02:48:30.522Z,28.20
2019-02-19T02:49:30.495Z,31.70
2019-02-19T02:50:30.508Z,37.50
2019-02-19T02:51:30.474Z,31.30
2019-02-19T02:52:30.472Z,29.60
2019-02-19T02:53:30.478Z,32.60
2019-02-19T02:54:30.511Z,37.50
2019-02-19T02:55:30.440Z,32.10
2019-02-19T02:56:30.434Z,35.40
2019-02-19T02:57:30.410Z,36.60
2019-02-19T02:58:30.462Z,29.80
2019-02-19T02:59:30.394Z,33.00
2019-02-19T03:00:30.399Z,31.30
2019-02-19T03:01:30.414Z,26.70
2019-02-19T03:02:30.374Z,25.60
2019-02-19T03:03:30.358Z,29.80
2019-02-19T03:04:30.696Z,25.80
2019-02-19T03:05:30.353Z,27.60
2019-02-19T03:06:30.333Z,32.00
2019-02-19T03:07:30.337Z,36.00
2019-02-19T03:08:30.293Z,37.00
2019-02-19T03:09:30.283Z,29.60
2019-02-19T03:10:30.318Z,30.00
2019-02-19T03:11:30.269Z,33.30
2019-02-19T03:12:30.273Z,47.10
2019-02-19T03:13:30.243Z,40.80
2019-02-19T03:14:30.240Z,32.50
2019-02-19T03:15:30.240Z,32.30
2019-02-19T03:16:30.243Z,31.40
2019-02-19T03:17:30.214Z,34.00
2019-02-19T03:18:30.224Z,35.20
2019-02-19T03:19:30.181Z,35.50
2019-02-19T03:20:30.193Z,33.20
2019-02-19T03:21:30.172Z,38.90
2019-02-19T03:22:30.179Z,30.20
2019-02-19T03:23:30.152Z,37.80
2019-02-19T03:24:30.128Z,38.40
2019-02-19T03:25:30.399Z,38.80
2019-02-19T03:26:30.105Z,42.80
2019-02-19T03:27:30.112Z,29.30
2019-02-19T03:28:30.104Z,30.00
2019-02-19T03:29:30.074Z,35.20
2019-02-19T03:30:30.062Z,33.90
2019-02-19T03:31:30.050Z,38.80
2019-02-19T03:32:30.041Z,38.60
2019-02-19T03:33:30.049Z,36.90
2019-02-19T03:34:30.036Z,48.30
2019-02-19T03:35:30.005Z,38.50
2019-02-19T03:36:30.000Z,34.60
2019-02-19T03:37:29.989Z,39.90
2019-02-19T03:38:29.981Z,39.20
2019-02-19T03:39:29.987Z,37.10
2019-02-19T03:40:29.974Z,45.20
2019-02-19T03:41:29.957Z,32.10
2019-02-19T03:42:29.931Z,46.40
2019-02-19T03:43:29.939Z,196.40
2019-02-19T03:44:29.913Z,221.50
2019-02-19T03:45:29.914Z,209.80
2019-02-19T03:46:30.503Z,219.30
2019-02-19T03:47:29.880Z,242.80
2019-02-19T03:48:29.882Z,246.60
2019-02-19T03:49:29.856Z,241.40
2019-02-19T03:50:29.847Z,237.10
2019-02-19T03:51:29.891Z,241.00
2019-02-19T03:52:29.823Z,291.80
2019-02-19T03:53:29.826Z,285.00
2019-02-19T03:54:29.801Z,285.40
2019-02-19T03:55:29.795Z,294.20
2019-02-19T03:56:29.780Z,260.40
2019-02-19T03:57:29.796Z,269.10
2019-02-19T03:58:29.780Z,292.60
2019-02-19T03:59:29.756Z,267.00
2019-02-19T04:00:29.737Z,256.70
2019-02-19T04:01:29.726Z,254.90
2019-02-19T04:02:29.725Z,274.80
2019-02-19T04:03:29.735Z,264.00
2019-02-19T04:04:29.719Z,258.60
2019-02-19T04:05:29.685Z,234.10
2019-02-19T04:06:29.671Z,223.50
2019-02-19T04:07:29.689Z,207.00
2019-02-19T04:08:29.652Z,215.70
2019-02-19T04:09:29.654Z,218.10
2019-02-19T04:10:29.657Z,227.10
2019-02-19T04:11:29.651Z,216.70
2019-02-19T04:12:29.633Z,236.10
2019-02-19T04:13:29.627Z,232.30
2019-02-19T04:14:29.603Z,214.20
2019-02-19T04:15:29.679Z,221.70
2019-02-19T04:16:29.591Z,216.20
2019-02-19T04:17:29.563Z,219.30
2019-02-19T04:18:29.560Z,218.30
2019-02-19T04:19:29.539Z,216.30
2019-02-19T04:20:29.520Z,257.30
2019-02-19T04:21:29.519Z,267.70
2019-02-19T04:22:29.549Z,273.20
2019-02-19T04:23:29.497Z,288.90
2019-02-19T04:24:29.509Z,291.30
2019-02-19T04:25:29.488Z,326.40
2019-02-19T04:26:29.458Z,292.00
2019-02-19T04:27:29.446Z,306.70
2019-02-19T04:28:29.563Z,265.90
2019-02-19T04:29:29.432Z,279.00
2019-02-19T04:30:29.421Z,256.70
2019-02-19T04:31:29.403Z,258.40
2019-02-19T04:32:29.398Z,237.90
2019-02-19T04:33:29.402Z,219.30
2019-02-19T04:34:29.390Z,251.30
2019-02-19T04:35:29.382Z,235.80
2019-02-19T04:36:29.348Z,237.20
2019-02-19T04:37:30.108Z,269.20
2019-02-19T04:38:29.334Z,291.80
2019-02-19T04:39:29.333Z,236.20
2019-02-19T04:40:29.323Z,221.90
2019-02-19T04:41:29.303Z,192.00
2019-02-19T04:42:29.312Z,180.90
2019-02-19T04:43:29.286Z,185.70
2019-02-19T04:44:29.338Z,193.10
2019-02-19T04:45:29.282Z,176.20
2019-02-19T04:46:31.786Z,176.60
2019-02-19T04:47:29.292Z,172.10
2019-02-19T04:48:29.234Z,125.20
2019-02-19T04:49:29.536Z,132.40
2019-02-19T04:50:29.236Z,127.60
2019-02-19T04:51:29.223Z,135.90
2019-02-19T04:52:29.183Z,142.70
2019-02-19T04:53:29.179Z,154.50
2019-02-19T04:54:29.215Z,111.80
2019-02-19T04:55:29.166Z,122.20
2019-02-19T04:56:29.191Z,91.70
2019-02-19T04:57:29.154Z,106.30
2019-02-19T04:58:29.135Z,108.80
2019-02-19T04:59:29.140Z,103.20
2019-02-19T05:00:29.114Z,108.70
2019-02-19T05:01:29.108Z,110.30
2019-02-19T05:02:29.074Z,101.00
2019-02-19T05:03:29.063Z,130.00
2019-02-19T05:04:29.088Z,111.90
2019-02-19T05:05:29.097Z,119.20
2019-02-19T05:06:29.035Z,106.60
2019-02-19T05:07:29.037Z,121.70
2019-02-19T05:08:29.032Z,130.20
2019-02-19T05:09:29.033Z,127.50
2019-02-19T05:10:29.203Z,123.30
2019-02-19T05:11:28.987Z,109.20
2019-02-19T05:12:28.968Z,102.80
2019-02-19T05:13:28.994Z,94.90
2019-02-19T05:14:28.974Z,99.30
2019-02-19T05:15:28.959Z,117.00
2019-02-19T05:16:28.923Z,109.90
2019-02-19T05:17:28.929Z,108.50
2019-02-19T05:18:28.907Z,101.60
2019-02-19T05:19:28.890Z,106.20
2019-02-19T05:20:28.896Z,110.80
2019-02-19T05:21:28.934Z,99.60
2019-02-19T05:22:28.873Z,99.30
2019-02-19T05:23:28.867Z,93.50
2019-02-19T05:24:28.843Z,109.30
2019-02-19T05:25:28.844Z,100.40
2019-02-19T05:26:28.853Z,106.80
2019-02-19T05:27:28.841Z,112.90
2019-02-19T05:28:28.814Z,112.80
2019-02-19T05:29:28.789Z,107.10
2019-02-19T05:30:28.812Z,111.00
2019-02-19T05:31:29.177Z,103.10
2019-02-19T05:32:28.760Z,107.00
2019-02-19T05:33:28.764Z,134.80
2019-02-19T05:34:28.736Z,157.10
2019-02-19T05:35:28.751Z,167.90
2019-02-19T05:36:28.720Z,163.90
2019-02-19T05:37:28.709Z,157.70
2019-02-19T05:38:28.711Z,163.20
2019-02-19T05:39:28.695Z,178.50
2019-02-19T05:40:28.679Z,176.00
2019-02-19T05:41:28.659Z,167.30
2019-02-19T05:42:28.659Z,175.70
2019-02-19T05:43:28.643Z,177.20
2019-02-19T05:44:28.649Z,175.90
2019-02-19T05:45:28.651Z,221.30
2019-02-19T05:46:28.611Z,203.40
2019-02-19T05:47:28.613Z,182.40
2019-02-19T05:48:28.589Z,187.70
2019-02-19T05:49:28.597Z,183.60
2019-02-19T05:50:28.562Z,173.40
2019-02-19T05:51:28.612Z,154.60
2019-02-19T05:52:28.548Z,147.80
2019-02-19T05:53:28.535Z,156.60
2019-02-19T05:54:28.529Z,143.50
2019-02-19T05:55:28.535Z,145.70
2019-02-19T05:56:28.526Z,153.20
2019-02-19T05:57:28.492Z,150.30
2019-02-19T05:58:28.480Z,159.10
2019-02-19T05:59:28.471Z,168.50
2019-02-19T06:00:28.460Z,174.60
2019-02-19T06:01:28.471Z,209.10
2019-02-19T06:02:28.464Z,192.80
2019-02-19T06:03:28.424Z,187.00
2019-02-19T06:04:28.414Z,199.50
2019-02-19T06:05:28.430Z,203.50
2019-02-19T06:06:28.402Z,182.70
2019-02-19T06:07:28.385Z,172.40
2019-02-19T06:08:28.381Z,184.50
2019-02-19T06:09:28.468Z,152.60
2019-02-19T06:10:28.375Z,153.00
2019-02-19T06:11:28.346Z,167.80
2019-02-19T06:12:28.332Z,149.40
2019-02-19T06:13:28.534Z,134.50
2019-02-19T06:14:28.316Z,155.40
2019-02-19T06:15:28.398Z,143.50
2019-02-19T06:16:28.302Z,157.00
2019-02-19T06:17:28.276Z,137.00
2019-02-19T06:18:28.271Z,141.80
2019-02-19T06:19:28.274Z,152.80
2019-02-19T06:20:28.272Z,150.70
2019-02-19T06:21:28.240Z,166.80
2019-02-19T06:22:28.243Z,163.50
2019-02-19T06:23:28.223Z,154.50
2019-02-19T06:24:28.201Z,162.40
2019-02-19T06:25:28.213Z,145.40
2019-02-19T06:26:28.212Z,162.80
2019-02-19T06:27:28.183Z,146.30
2019-02-19T06:28:28.178Z,166.90
2019-02-19T06:29:28.164Z,147.00
2019-02-19T06:30:28.160Z,156.20
2019-02-19T06:31:28.133Z,151.70
2019-02-19T06:32:28.126Z,126.50
2019-02-19T06:33:28.132Z,138.30
2019-02-19T06:34:28.108Z,160.40
2019-02-19T06:35:28.113Z,150.60
2019-02-19T06:36:28.094Z,141.90
2019-02-19T06:37:28.079Z,151.00
2019-02-19T06:38:28.057Z,139.80
2019-02-19T06:39:28.048Z,139.00
2019-02-19T06:40:28.048Z,136.70
2019-02-19T06:41:28.039Z,136.10
2019-02-19T06:42:28.032Z,125.30
2019-02-19T06:43:27.998Z,124.30
2019-02-19T06:44:27.991Z,115.80
2019-02-19T06:45:27.985Z,119.80
2019-02-19T06:46:27.997Z,113.20
2019-02-19T06:47:27.956Z,100.10
2019-02-19T06:48:27.955Z,120.90
2019-02-19T06:49:27.960Z,106.00
2019-02-19T06:50:27.931Z,103.20
2019-02-19T06:51:27.919Z,111.50
2019-02-19T06:52:27.924Z,110.00
2019-02-19T06:53:27.944Z,116.20
2019-02-19T06:54:27.906Z,104.40
2019-02-19T06:55:28.093Z,106.10
2019-02-19T06:56:27.888Z,96.00
2019-02-19T06:57:27.855Z,100.60
2019-02-19T06:58:27.871Z,95.40
2019-02-19T06:59:27.833Z,109.40
2019-02-19T07:00:27.820Z,113.90
2019-02-19T07:01:27.833Z,98.00
2019-02-19T07:02:27.800Z,111.90
2019-02-19T07:03:27.825Z,101.40
2019-02-19T07:04:27.777Z,160.40
2019-02-19T07:05:27.765Z,133.80
2019-02-19T07:06:27.784Z,121.30
2019-02-19T07:07:27.745Z,132.30
2019-02-19T07:08:27.731Z,126.00
2019-02-19T07:09:27.759Z,115.00
2019-02-19T07:10:27.720Z,109.10
2019-02-19T07:11:27.722Z,118.90
2019-02-19T07:12:27.706Z,129.20
2019-02-19T07:13:27.684Z,134.30
2019-02-19T07:14:27.673Z,142.30
2019-02-19T07:15:27.682Z,127.60
2019-02-19T07:16:27.693Z,127.90
2019-02-19T07:17:27.666Z,121.50
2019-02-19T07:18:27.627Z,121.80
2019-02-19T07:19:27.615Z,144.10
2019-02-19T07:20:27.605Z,149.30
2019-02-19T07:21:27.636Z,134.20
2019-02-19T07:22:27.587Z,147.50
2019-02-19T07:23:27.574Z,135.90
2019-02-19T07:24:27.570Z,132.80
2019-02-19T07:25:27.594Z,132.00
2019-02-19T07:26:27.558Z,118.80
2019-02-19T07:27:27.552Z,126.60
2019-02-19T07:28:27.528Z,116.80
2019-02-19T07:29:27.518Z,122.30
2019-02-19T07:30:27.502Z,135.60
2019-02-19T07:31:27.503Z,113.00
2019-02-19T07:32:27.482Z,124.20
2019-02-19T07:33:27.481Z,121.70
2019-02-19T07:34:27.459Z,115.50
2019-02-19T07:35:27.451Z,104.60
2019-02-19T07:36:27.447Z,123.20
2019-02-19T07:37:27.642Z,100.40
2019-02-19T07:38:27.416Z,102.00
2019-02-19T07:39:27.425Z,109.50
2019-02-19T07:40:27.396Z,104.50
2019-02-19T07:41:27.400Z,106.50
2019-02-19T07:42:27.370Z,97.90
2019-02-19T07:43:27.360Z,108.70
2019-02-19T07:44:27.366Z,90.30
2019-02-19T07:45:27.341Z,104.20
2019-02-19T07:46:27.326Z,85.30
2019-02-19T07:47:27.361Z,103.70
2019-02-19T07:48:27.309Z,91.00
2019-02-19T07:49:27.297Z,113.40
2019-02-19T07:50:27.310Z,122.10
2019-02-19T07:51:27.295Z,116.60
2019-02-19T07:52:27.270Z,113.20
2019-02-19T07:53:27.266Z,110.50
2019-02-19T07:54:27.257Z,94.00
2019-02-19T07:55:27.237Z,100.80
2019-02-19T07:56:27.287Z,113.40
2019-02-19T07:57:27.213Z,119.50
2019-02-19T07:58:27.418Z,104.80
2019-02-19T07:59:27.201Z,128.20
2019-02-19T08:00:27.175Z,100.40
2019-02-19T08:01:27.231Z,105.00
2019-02-19T08:02:27.170Z,109.90
2019-02-19T08:03:27.161Z,102.90
2019-02-19T08:04:27.139Z,107.90
2019-02-19T08:05:27.123Z,118.30
2019-02-19T08:06:27.126Z,89.10
2019-02-19T08:07:27.106Z,88.70
2019-02-19T08:08:27.093Z,94.20
2019-02-19T08:09:27.087Z,93.50
2019-02-19T08:10:27.141Z,94.90
2019-02-19T08:11:27.124Z,114.40
2019-02-19T08:12:27.068Z,99.60
2019-02-19T08:13:27.060Z,96.60
2019-02-19T08:14:28.585Z,90.70
2019-02-19T08:15:27.022Z,90.50
2019-02-19T08:16:27.028Z,89.70
2019-02-19T08:17:33.090Z,101.00
2019-02-19T08:18:27.993Z,96.70
2019-02-19T08:19:27.027Z,104.30
2019-02-19T08:20:26.969Z,100.70
2019-02-19T08:21:26.967Z,92.80
2019-02-19T08:22:26.976Z,88.70
2019-02-19T08:23:26.930Z,91.50
2019-02-19T08:24:26.923Z,102.30
2019-02-19T08:25:26.907Z,99.50
2019-02-19T08:26:26.899Z,95.60
2019-02-19T08:27:26.915Z,91.70
2019-02-19T08:28:26.896Z,92.80
2019-02-19T08:29:26.865Z,83.60
2019-02-19T08:30:26.851Z,94.50
2019-02-19T08:31:26.845Z,91.50
2019-02-19T08:32:26.830Z,140.40
2019-02-19T08:33:26.839Z,118.60
2019-02-19T08:34:26.844Z,111.90
2019-02-19T08:35:26.797Z,117.90
2019-02-19T08:36:26.807Z,125.40
2019-02-19T08:37:26.777Z,126.30
2019-02-19T08:38:26.766Z,114.60
2019-02-19T08:39:26.759Z,109.60
2019-02-19T08:40:27.100Z,130.10
2019-02-19T08:41:26.740Z,106.60
2019-02-19T08:42:26.737Z,120.20
2019-02-19T08:43:26.711Z,109.90
2019-02-19T08:44:26.699Z,89.20
2019-02-19T08:45:26.692Z,112.70
2019-02-19T08:46:26.711Z,105.90
2019-02-19T08:47:26.729Z,83.90
2019-02-19T08:48:26.656Z,100.60
2019-02-19T08:49:26.644Z,81.40
2019-02-19T08:50:26.638Z,102.20
2019-02-19T08:51:26.624Z,107.90
2019-02-19T08:52:26.679Z,117.00
2019-02-19T08:53:26.601Z,115.70
2019-02-19T08:54:26.591Z,124.90
2019-02-19T08:55:26.580Z,102.70
2019-02-19T08:56:26.573Z,109.90
2019-02-19T08:57:26.577Z,111.10
2019-02-19T08:58:26.569Z,106.10
2019-02-19T08:59:26.535Z,105.40
2019-02-19T09:00:26.526Z,96.60
2019-02-19T09:01:26.516Z,123.50
2019-02-19T09:02:26.521Z,109.50
2019-02-19T09:03:26.494Z,99.00
2019-02-19T09:04:26.512Z,93.90
2019-02-19T09:05:26.470Z,92.30
2019-02-19T09:06:27.667Z,79.00
2019-02-19T09:07:26.473Z,97.40
2019-02-19T09:08:26.437Z,93.90
2019-02-19T09:09:26.429Z,103.70
2019-02-19T09:10:26.429Z,116.80
2019-02-19T09:11:26.417Z,99.80
2019-02-19T09:12:26.416Z,124.00
2019-02-19T09:13:26.393Z,99.40
2019-02-19T09:14:26.376Z,79.20
2019-02-19T09:15:26.360Z,106.00
2019-02-19T09:16:26.381Z,97.30
2019-02-19T09:17:26.378Z,106.90
2019-02-19T09:18:26.328Z,118.70
2019-02-19T09:19:26.323Z,112.30
2019-02-19T09:20:26.307Z,136.20
2019-02-19T09:21:26.295Z,125.40
2019-02-19T09:22:26.300Z,106.40
2019-02-19T09:23:26.301Z,93.50
2019-02-19T09:24:26.269Z,113.90
2019-02-19T09:25:26.258Z,108.00
2019-02-19T09:26:26.242Z,91.40
2019-02-19T09:27:26.248Z,79.70
2019-02-19T09:28:26.222Z,99.10
2019-02-19T09:29:26.230Z,97.30
2019-02-19T09:30:26.204Z,98.10
2019-02-19T09:31:26.203Z,79.70
2019-02-19T09:32:26.193Z,94.70
2019-02-19T09:33:26.168Z,92.90
2019-02-19T09:34:26.156Z,83.20
2019-02-19T09:35:26.182Z,79.10
2019-02-19T09:36:26.135Z,65.70
2019-02-19T09:37:26.148Z,66.00
2019-02-19T09:38:26.122Z,68.60
2019-02-19T09:39:26.105Z,79.50
2019-02-19T09:40:26.092Z,72.30
2019-02-19T09:41:26.094Z,56.10
2019-02-19T09:42:26.107Z,45.80
2019-02-19T09:43:26.062Z,57.60
2019-02-19T09:44:26.046Z,59.60
2019-02-19T09:45:26.036Z,50.50
2019-02-19T09:46:26.025Z,53.80
2019-02-19T09:47:26.067Z,47.30
2019-02-19T09:48:26.032Z,52.50
2019-02-19T09:49:25.995Z,47.30
2019-02-19T09:50:25.995Z,52.20
2019-02-19T09:51:25.974Z,53.00
2019-02-19T09:52:25.963Z,57.90
2019-02-19T09:53:25.973Z,58.00
2019-02-19T09:54:25.958Z,55.10
2019-02-19T09:55:25.949Z,56.00
2019-02-19T09:56:25.936Z,35.80
2019-02-19T09:57:25.916Z,50.50
2019-02-19T09:58:25.931Z,44.00
2019-02-19T09:59:25.902Z,28.90
2019-02-19T10:00:25.886Z,36.10
2019-02-19T10:01:25.882Z,42.20
2019-02-19T10:02:25.853Z,33.40
2019-02-19T10:03:25.856Z,28.40
2019-02-19T10:04:26.048Z,32.70
2019-02-19T10:05:25.854Z,30.70
2019-02-19T10:06:25.810Z,32.00
2019-02-19T10:07:25.800Z,31.90
2019-02-19T10:08:25.807Z,27.70
2019-02-19T10:09:25.785Z,31.50
2019-02-19T10:10:25.786Z,22.80
2019-02-19T10:11:25.768Z,20.80
2019-02-19T10:12:25.768Z,41.10
2019-02-19T10:13:25.841Z,23.20
2019-02-19T10:14:25.735Z,23.70
2019-02-19T10:15:25.727Z,24.80
2019-02-19T10:16:25.731Z,27.10
2019-02-19T10:17:25.700Z,26.30
2019-02-19T10:18:25.736Z,27.80
2019-02-19T10:19:26.154Z,40.80
2019-02-19T10:20:25.669Z,25.50
2019-02-19T10:21:25.650Z,33.20
2019-02-19T10:22:25.652Z,37.60
2019-02-19T10:23:25.660Z,19.00
2019-02-19T10:24:25.618Z,28.20
2019-02-19T10:25:25.607Z,29.10
2019-02-19T10:26:25.593Z,31.40
2019-02-19T10:27:25.590Z,31.60
2019-02-19T10:28:25.588Z,22.40
2019-02-19T10:29:25.589Z,22.30
2019-02-19T10:30:25.550Z,25.70
2019-02-19T10:31:25.540Z,25.60
2019-02-19T10:32:25.531Z,19.70
2019-02-19T10:33:25.531Z,23.20
2019-02-19T10:34:25.545Z,37.50
2019-02-19T10:35:25.526Z,22.90
2019-02-19T10:36:25.501Z,32.40
2019-02-19T10:37:25.489Z,20.10
2019-02-19T10:38:25.576Z,20.80
2019-02-19T10:39:25.464Z,21.90
2019-02-19T10:40:25.463Z,21.60
2019-02-19T10:41:25.488Z,19.50
2019-02-19T10:42:25.454Z,15.30
2019-02-19T10:43:25.419Z,32.20
2019-02-19T10:44:25.539Z,15.30
2019-02-19T10:45:25.400Z,20.50
2019-02-19T10:46:25.395Z,24.30
2019-02-19T10:47:25.390Z,18.20
2019-02-19T10:48:25.374Z,14.90
2019-02-19T10:49:25.362Z,14.60
2019-02-19T10:50:25.338Z,9.90
2019-02-19T10:51:25.348Z,14.80
2019-02-19T10:52:25.341Z,19.10
2019-02-19T10:53:25.330Z,17.40
2019-02-19T10:54:25.298Z,11.60
2019-02-19T10:55:25.304Z,13.90
2019-02-19T10:56:25.287Z,15.90
2019-02-19T10:57:25.285Z,22.70
2019-02-19T10:58:25.247Z,16.30
2019-02-19T10:59:25.262Z,22.20
2019-02-19T11:00:25.228Z,16.00
2019-02-19T11:01:25.217Z,17.00
2019-02-19T11:02:25.225Z,17.40
2019-02-19T11:03:25.218Z,17.20
2019-02-19T11:04:25.196Z,19.10
2019-02-19T11:05:25.198Z,21.10
2019-02-19T11:06:25.166Z,15.70
2019-02-19T11:07:25.161Z,15.70
2019-02-19T11:08:25.201Z,11.20
2019-02-19T11:09:25.142Z,21.60
2019-02-19T11:10:25.153Z,17.40
2019-02-19T11:11:25.141Z,17.30
2019-02-19T11:12:25.100Z,14.10
2019-02-19T11:13:25.106Z,14.70
2019-02-19T11:14:25.081Z,14.00
2019-02-19T11:15:25.074Z,17.70
2019-02-19T11:16:25.079Z,14.10
2019-02-19T11:17:25.054Z,22.20
2019-02-19T11:18:28.425Z,18.60
2019-02-19T11:19:25.046Z,19.20
2019-02-19T11:20:25.013Z,19.20
2019-02-19T11:21:25.007Z,17.90
2019-02-19T11:22:26.007Z,11.40
2019-02-19T11:23:24.998Z,14.10
2019-02-19T11:24:24.968Z,13.50
2019-02-19T11:25:24.978Z,17.00
2019-02-19T11:26:24.952Z,19.20
2019-02-19T11:27:24.942Z,20.60
2019-02-19T11:28:24.945Z,20.50
2019-02-19T11:29:25.043Z,28.10
2019-02-19T11:30:24.908Z,22.40
2019-02-19T11:31:24.934Z,20.70
2019-02-19T11:32:26.355Z,15.50
2019-02-19T11:33:24.873Z,23.00
2019-02-19T11:34:24.877Z,19.50
2019-02-19T11:35:24.848Z,22.60
2019-02-19T11:36:24.837Z,17.90
2019-02-19T11:37:24.843Z,27.00
2019-02-19T11:38:24.849Z,19.90
2019-02-19T11:39:24.835Z,24.10
2019-02-19T11:40:24.842Z,18.60
2019-02-19T11:41:24.799Z,21.10
2019-02-19T11:42:24.772Z,23.00
2019-02-19T11:43:24.804Z,21.30
2019-02-19T11:44:24.807Z,20.60
2019-02-19T11:45:24.742Z,30.00
2019-02-19T11:46:24.751Z,20.10
2019-02-19T11:47:26.662Z,20.40
2019-02-19T11:48:24.714Z,23.10
2019-02-19T11:49:24.828Z,21.30
2019-02-19T11:50:24.703Z,22.00
2019-02-19T11:51:24.678Z,25.50
2019-02-19T11:52:24.731Z,26.10
2019-02-19T11:53:24.673Z,26.10
2019-02-19T11:54:24.664Z,29.20
2019-02-19T11:55:24.639Z,20.20
2019-02-19T11:56:24.633Z,23.30
2019-02-19T11:57:24.627Z,20.50
2019-02-19T11:58:24.606Z,24.60
2019-02-19T11:59:24.611Z,20.60
2019-02-19T12:00:24.674Z,19.10
2019-02-19T12:01:24.568Z,17.00
2019-02-19T12:02:32.577Z,19.40
2019-02-19T12:03:25.545Z,17.60
2019-02-19T12:04:24.556Z,19.40
2019-02-19T12:05:24.534Z,20.30
2019-02-19T12:06:24.529Z,14.90
2019-02-19T12:07:24.507Z,23.80
2019-02-19T12:08:24.494Z,15.70
2019-02-19T12:09:24.498Z,12.70
2019-02-19T12:10:24.472Z,17.00
2019-02-19T12:11:24.534Z,18.50
2019-02-19T12:12:24.454Z,19.40
2019-02-19T12:13:24.443Z,15.50
2019-02-19T12:14:24.451Z,17.10
2019-02-19T12:15:24.413Z,12.10
2019-02-19T12:16:24.407Z,15.80
2019-02-19T12:17:24.433Z,17.00
2019-02-19T12:18:24.383Z,16.70
2019-02-19T12:19:24.385Z,14.50
2019-02-19T12:20:24.390Z,14.00
2019-02-19T12:21:24.362Z,18.90
2019-02-19T12:22:24.353Z,18.20
2019-02-19T12:23:24.331Z,16.70
2019-02-19T12:24:24.450Z,19.50
2019-02-19T12:25:24.354Z,19.90
2019-02-19T12:26:24.338Z,19.40
2019-02-19T12:27:24.291Z,20.30
2019-02-19T12:28:24.300Z,18.30
2019-02-19T12:29:24.260Z,18.60
2019-02-19T12:30:24.258Z,18.20
2019-02-19T12:31:24.310Z,12.70
2019-02-19T12:32:24.252Z,19.60
2019-02-19T12:33:24.223Z,18.40
2019-02-19T12:34:24.236Z,23.50
2019-02-19T12:35:24.202Z,15.90
2019-02-19T12:36:24.208Z,16.80
2019-02-19T12:37:24.176Z,17.60
2019-02-19T12:38:24.185Z,15.00
2019-02-19T12:39:24.159Z,13.70
2019-02-19T12:40:24.187Z,13.90
2019-02-19T12:41:24.136Z,14.60
2019-02-19T12:42:24.129Z,12.90
2019-02-19T12:43:24.118Z,16.20